TimeEST,TemperatureF,Dew PointF,Humidity,Sea Level PressureIn,VisibilityMPH,Wind Direction,Wind SpeedMPH,Gust SpeedMPH,PrecipitationIn,Events,Conditions,WindDirDegrees,DateUTC
12:54 AM,28.0,21.0,75,30.35,10.0,ENE,3.5,-,N/A,,Clear,60,2013-03-09 05:54:00
1:54 AM,27.0,19.9,75,30.34,10.0,ENE,5.8,-,N/A,,Clear,60,2013-03-09 06:54:00
2:54 AM,27.0,19.9,75,30.33,10.0,ENE,4.6,-,N/A,,Clear,70,2013-03-09 07:54:00
3:54 AM,25.0,19.0,78,30.34,10.0,Calm,Calm,-,N/A,,Clear,0,2013-03-09 08:54:00
4:54 AM,24.1,19.0,81,30.35,10.0,Calm,Calm,-,N/A,,Clear,0,2013-03-09 09:54:00
5:54 AM,23.0,19.0,85,30.37,10.0,Calm,Calm,-,N/A,,Clear,0,2013-03-09 10:54:00
6:54 AM,24.8,19.4,80,30.36,9.0,Calm,Calm,-,N/A,,Clear,0,2013-03-09 11:54:00
7:54 AM,30.0,21.9,72,30.39,10.0,North,4.6,-,N/A,,Clear,10,2013-03-09 12:54:00
8:54 AM,34.0,21.9,61,30.38,10.0,NNW,8.1,-,N/A,,Clear,340,2013-03-09 13:54:00
9:54 AM,37.0,21.0,52,30.38,10.0,North,8.1,-,N/A,,Clear,350,2013-03-09 14:54:00
10:54 AM,39.0,21.9,50,30.39,10.0,NW,10.4,-,N/A,,Clear,310,2013-03-09 15:54:00
11:54 AM,42.1,21.9,45,30.37,10.0,NNE,3.5,-,N/A,,Clear,20,2013-03-09 16:54:00
12:54 PM,44.1,21.9,42,30.34,10.0,Variable,4.6,-,N/A,,Clear,0,2013-03-09 17:54:00
1:54 PM,45.0,24.1,44,30.33,10.0,NW,9.2,-,N/A,,Clear,310,2013-03-09 18:54:00
2:54 PM,46.0,21.9,39,30.33,10.0,NW,10.4,-,N/A,,Clear,310,2013-03-09 19:54:00
3:54 PM,46.0,21.9,39,30.33,10.0,NNW,9.2,-,N/A,,Clear,330,2013-03-09 20:54:00
4:54 PM,44.1,21.9,42,30.34,10.0,NNW,6.9,-,N/A,,Clear,330,2013-03-09 21:54:00
5:54 PM,39.0,19.9,46,30.35,10.0,NNW,6.9,-,N/A,,Clear,330,2013-03-09 22:54:00
6:54 PM,36.0,21.0,55,30.35,10.0,NNW,3.5,-,N/A,,Clear,330,2013-03-09 23:54:00
7:54 PM,34.0,21.0,59,30.35,10.0,Calm,Calm,-,N/A,,Clear,0,2013-03-10 00:54:00
8:54 PM,32.0,21.0,64,30.34,10.0,Calm,Calm,-,N/A,,Clear,0,2013-03-10 01:54:00
9:54 PM,28.0,21.9,78,30.34,10.0,Calm,Calm,-,N/A,,Clear,0,2013-03-10 02:54:00
10:54 PM,27.0,21.9,81,30.35,10.0,Calm,Calm,-,N/A,,Clear,0,2013-03-10 03:54:00
11:54 PM,28.0,21.9,78,30.35,10.0,Calm,Calm,-,N/A,,Clear,0,2013-03-10 04:54:00